sensor_id;sensor_type;location;lat;lon;timestamp;P1;durP1;ratioP1;P2;durP2;ratioP2
76157;SDS011;64907;51.574;6.502;2022-11-20T00:01:40;36.83;;;19.75;;
76157;SDS011;64907;51.574;6.502;2022-11-20T00:04:05;32.92;;;19.45;;
76157;SDS011;64907;51.574;6.502;2022-11-20T00:06:31;40.38;;;19.67;;
76157;SDS011;64907;51.574;6.502;2022-11-20T00:08:57;34.83;;;19.42;;
76157;SDS011;64907;51.574;6.502;2022-11-20T00:11:24;31.30;;;17.77;;
76157;SDS011;64907;51.574;6.502;2022-11-20T00:13:51;35.55;;;17.27;;
76157;SDS011;64907;51.574;6.502;2022-11-20T00:16:17;34.30;;;18.02;;
76157;SDS011;64907;51.574;6.502;2022-11-20T00:18:43;48.97;;;24.10;;
76157;SDS011;64907;51.574;6.502;2022-11-20T00:21:42;43.55;;;22.83;;
76157;SDS011;64907;51.574;6.502;2022-11-20T00:24:01;39.45;;;20.08;;
76157;SDS011;64907;51.574;6.502;2022-11-20T00:26:27;44.10;;;22.95;;
76157;SDS011;64907;51.574;6.502;2022-11-20T00:28:56;37.35;;;21.58;;
76157;SDS011;64907;51.574;6.502;2022-11-20T00:31:22;46.00;;;21.73;;
76157;SDS011;64907;51.574;6.502;2022-11-20T00:33:47;40.40;;;22.42;;
76157;SDS011;64907;51.574;6.502;2022-11-20T00:36:13;39.17;;;20.90;;
76157;SDS011;64907;51.574;6.502;2022-11-20T00:38:39;32.65;;;19.30;;
76157;SDS011;64907;51.574;6.502;2022-11-20T00:41:08;41.38;;;21.08;;
76157;SDS011;64907;51.574;6.502;2022-11-20T00:43:37;46.40;;;22.27;;
76157;SDS011;64907;51.574;6.502;2022-11-20T00:46:06;40.08;;;21.08;;
76157;SDS011;64907;51.574;6.502;2022-11-20T00:48:32;34.00;;;19.10;;
76157;SDS011;64907;51.574;6.502;2022-11-20T00:50:57;29.90;;;17.65;;
76157;SDS011;64907;51.574;6.502;2022-11-20T00:53:23;30.27;;;16.85;;
76157;SDS011;64907;51.574;6.502;2022-11-20T00:55:55;32.80;;;18.05;;
76157;SDS011;64907;51.574;6.502;2022-11-20T00:58:21;34.28;;;18.85;;
76157;SDS011;64907;51.574;6.502;2022-11-20T01:00:46;36.90;;;19.75;;
76157;SDS011;64907;51.574;6.502;2022-11-20T01:03:11;33.17;;;19.52;;
76157;SDS011;64907;51.574;6.502;2022-11-20T01:05:36;31.00;;;18.98;;
76157;SDS011;64907;51.574;6.502;2022-11-20T01:08:01;35.50;;;20.15;;
76157;SDS011;64907;51.574;6.502;2022-11-20T01:10:26;31.73;;;18.80;;
76157;SDS011;64907;51.574;6.502;2022-11-20T01:12:52;30.33;;;17.88;;
76157;SDS011;64907;51.574;6.502;2022-11-20T01:15:37;31.63;;;19.08;;
76157;SDS011;64907;51.574;6.502;2022-11-20T01:18:16;30.67;;;18.08;;
76157;SDS011;64907;51.574;6.502;2022-11-20T01:20:41;30.73;;;17.90;;
76157;SDS011;64907;51.574;6.502;2022-11-20T01:23:07;29.63;;;18.10;;
76157;SDS011;64907;51.574;6.502;2022-11-20T01:25:32;30.30;;;16.90;;
76157;SDS011;64907;51.574;6.502;2022-11-20T01:27:59;32.95;;;17.65;;
76157;SDS011;64907;51.574;6.502;2022-11-20T01:30:25;30.80;;;18.05;;
76157;SDS011;64907;51.574;6.502;2022-11-20T01:32:50;32.50;;;18.23;;
76157;SDS011;64907;51.574;6.502;2022-11-20T01:35:15;38.13;;;20.10;;
76157;SDS011;64907;51.574;6.502;2022-11-20T01:37:41;30.17;;;17.73;;
76157;SDS011;64907;51.574;6.502;2022-11-20T01:40:06;37.92;;;20.48;;
76157;SDS011;64907;51.574;6.502;2022-11-20T01:42:47;38.08;;;19.20;;
76157;SDS011;64907;51.574;6.502;2022-11-20T01:48:19;33.78;;;17.98;;
76157;SDS011;64907;51.574;6.502;2022-11-20T01:50:49;37.70;;;20.80;;
76157;SDS011;64907;51.574;6.502;2022-11-20T01:53:16;37.42;;;20.20;;
76157;SDS011;64907;51.574;6.502;2022-11-20T01:55:44;33.33;;;19.13;;
76157;SDS011;64907;51.574;6.502;2022-11-20T01:58:12;31.63;;;19.10;;
76157;SDS011;64907;51.574;6.502;2022-11-20T02:00:44;36.58;;;20.17;;
76157;SDS011;64907;51.574;6.502;2022-11-20T02:03:11;39.90;;;22.13;;
76157;SDS011;64907;51.574;6.502;2022-11-20T02:05:42;39.38;;;21.65;;
76157;SDS011;64907;51.574;6.502;2022-11-20T02:08:08;39.30;;;20.23;;
76157;SDS011;64907;51.574;6.502;2022-11-20T02:10:33;36.92;;;19.15;;
76157;SDS011;64907;51.574;6.502;2022-11-20T02:12:59;36.97;;;19.20;;
76157;SDS011;64907;51.574;6.502;2022-11-20T02:15:43;32.55;;;19.77;;
76157;SDS011;64907;51.574;6.502;2022-11-20T02:18:09;37.53;;;20.70;;
76157;SDS011;64907;51.574;6.502;2022-11-20T02:20:34;37.33;;;21.27;;
76157;SDS011;64907;51.574;6.502;2022-11-20T02:23:03;36.67;;;20.15;;
76157;SDS011;64907;51.574;6.502;2022-11-20T02:25:32;38.92;;;22.20;;
76157;SDS011;64907;51.574;6.502;2022-11-20T02:27:57;37.03;;;20.35;;
76157;SDS011;64907;51.574;6.502;2022-11-20T02:30:23;36.45;;;20.98;;
76157;SDS011;64907;51.574;6.502;2022-11-20T02:32:48;33.15;;;19.92;;
76157;SDS011;64907;51.574;6.502;2022-11-20T02:37:49;40.33;;;20.67;;
76157;SDS011;64907;51.574;6.502;2022-11-20T02:40:15;35.75;;;20.35;;
76157;SDS011;64907;51.574;6.502;2022-11-20T02:42:41;32.83;;;20.63;;
76157;SDS011;64907;51.574;6.502;2022-11-20T02:45:06;31.52;;;18.40;;
76157;SDS011;64907;51.574;6.502;2022-11-20T02:47:31;30.55;;;17.80;;
76157;SDS011;64907;51.574;6.502;2022-11-20T02:49:57;34.97;;;19.60;;
76157;SDS011;64907;51.574;6.502;2022-11-20T02:52:22;36.00;;;19.95;;
76157;SDS011;64907;51.574;6.502;2022-11-20T02:54:47;35.03;;;19.75;;
76157;SDS011;64907;51.574;6.502;2022-11-20T02:57:13;35.30;;;18.80;;
76157;SDS011;64907;51.574;6.502;2022-11-20T02:59:38;30.73;;;18.25;;
76157;SDS011;64907;51.574;6.502;2022-11-20T03:02:03;34.75;;;18.95;;
76157;SDS011;64907;51.574;6.502;2022-11-20T03:04:29;34.30;;;19.05;;
76157;SDS011;64907;51.574;6.502;2022-11-20T03:06:55;29.70;;;17.48;;
76157;SDS011;64907;51.574;6.502;2022-11-20T03:09:20;32.97;;;19.08;;
76157;SDS011;64907;51.574;6.502;2022-11-20T03:11:45;33.50;;;19.93;;
76157;SDS011;64907;51.574;6.502;2022-11-20T03:14:10;38.67;;;20.98;;
76157;SDS011;64907;51.574;6.502;2022-11-20T03:16:35;38.50;;;21.70;;
76157;SDS011;64907;51.574;6.502;2022-11-20T03:19:00;32.85;;;19.52;;
76157;SDS011;64907;51.574;6.502;2022-11-20T03:23:54;36.97;;;21.00;;
76157;SDS011;64907;51.574;6.502;2022-11-20T03:26:20;36.90;;;19.92;;
76157;SDS011;64907;51.574;6.502;2022-11-20T03:28:51;36.53;;;20.88;;
76157;SDS011;64907;51.574;6.502;2022-11-20T03:31:17;38.78;;;21.05;;
76157;SDS011;64907;51.574;6.502;2022-11-20T03:33:43;33.20;;;19.50;;
76157;SDS011;64907;51.574;6.502;2022-11-20T03:36:09;32.35;;;20.20;;
76157;SDS011;64907;51.574;6.502;2022-11-20T03:38:35;32.58;;;18.23;;
76157;SDS011;64907;51.574;6.502;2022-11-20T03:41:01;36.55;;;20.55;;
76157;SDS011;64907;51.574;6.502;2022-11-20T03:43:27;38.72;;;22.23;;
76157;SDS011;64907;51.574;6.502;2022-11-20T03:45:52;32.80;;;20.73;;
76157;SDS011;64907;51.574;6.502;2022-11-20T03:48:18;39.58;;;20.23;;
76157;SDS011;64907;51.574;6.502;2022-11-20T03:50:43;37.47;;;20.80;;
76157;SDS011;64907;51.574;6.502;2022-11-20T03:53:08;42.08;;;22.88;;
76157;SDS011;64907;51.574;6.502;2022-11-20T03:55:34;35.22;;;21.80;;
76157;SDS011;64907;51.574;6.502;2022-11-20T03:57:59;40.83;;;23.70;;
76157;SDS011;64907;51.574;6.502;2022-11-20T04:00:24;37.47;;;22.58;;
76157;SDS011;64907;51.574;6.502;2022-11-20T04:02:50;33.47;;;21.35;;
76157;SDS011;64907;51.574;6.502;2022-11-20T04:05:15;39.40;;;23.08;;
76157;SDS011;64907;51.574;6.502;2022-11-20T04:07:40;38.45;;;22.15;;
76157;SDS011;64907;51.574;6.502;2022-11-20T04:10:11;41.42;;;22.25;;
76157;SDS011;64907;51.574;6.502;2022-11-20T04:12:37;35.50;;;20.98;;
76157;SDS011;64907;51.574;6.502;2022-11-20T04:15:02;36.50;;;21.70;;
76157;SDS011;64907;51.574;6.502;2022-11-20T04:17:27;34.30;;;21.77;;
76157;SDS011;64907;51.574;6.502;2022-11-20T04:19:52;33.50;;;21.25;;
76157;SDS011;64907;51.574;6.502;2022-11-20T04:22:17;35.42;;;21.77;;
76157;SDS011;64907;51.574;6.502;2022-11-20T04:24:43;36.72;;;20.73;;
76157;SDS011;64907;51.574;6.502;2022-11-20T04:27:08;35.85;;;20.98;;
76157;SDS011;64907;51.574;6.502;2022-11-20T04:29:33;32.67;;;20.23;;
76157;SDS011;64907;51.574;6.502;2022-11-20T04:31:58;34.85;;;21.02;;
76157;SDS011;64907;51.574;6.502;2022-11-20T04:34:23;32.30;;;20.27;;
76157;SDS011;64907;51.574;6.502;2022-11-20T04:36:55;32.60;;;20.33;;
76157;SDS011;64907;51.574;6.502;2022-11-20T04:39:20;33.22;;;20.95;;
76157;SDS011;64907;51.574;6.502;2022-11-20T04:41:45;34.35;;;20.38;;
76157;SDS011;64907;51.574;6.502;2022-11-20T04:44:10;30.38;;;20.00;;
76157;SDS011;64907;51.574;6.502;2022-11-20T04:46:40;29.27;;;19.58;;
76157;SDS011;64907;51.574;6.502;2022-11-20T04:49:05;35.58;;;20.33;;
76157;SDS011;64907;51.574;6.502;2022-11-20T04:51:31;32.42;;;20.75;;
76157;SDS011;64907;51.574;6.502;2022-11-20T04:53:56;33.35;;;20.35;;
76157;SDS011;64907;51.574;6.502;2022-11-20T04:56:21;30.95;;;20.23;;
76157;SDS011;64907;51.574;6.502;2022-11-20T04:58:46;34.60;;;20.88;;
76157;SDS011;64907;51.574;6.502;2022-11-20T05:01:13;33.60;;;21.70;;
76157;SDS011;64907;51.574;6.502;2022-11-20T05:03:39;31.33;;;19.17;;
76157;SDS011;64907;51.574;6.502;2022-11-20T05:06:04;31.35;;;20.30;;
76157;SDS011;64907;51.574;6.502;2022-11-20T05:08:30;33.88;;;21.52;;
76157;SDS011;64907;51.574;6.502;2022-11-20T05:10:59;32.90;;;20.50;;
76157;SDS011;64907;51.574;6.502;2022-11-20T05:13:25;31.35;;;20.15;;
76157;SDS011;64907;51.574;6.502;2022-11-20T05:15:50;31.60;;;19.92;;
76157;SDS011;64907;51.574;6.502;2022-11-20T05:18:15;30.70;;;19.33;;
76157;SDS011;64907;51.574;6.502;2022-11-20T05:20:40;31.63;;;19.83;;
76157;SDS011;64907;51.574;6.502;2022-11-20T05:23:05;38.78;;;21.50;;
76157;SDS011;64907;51.574;6.502;2022-11-20T05:25:30;31.55;;;19.77;;
76157;SDS011;64907;51.574;6.502;2022-11-20T05:27:56;28.83;;;19.48;;
76157;SDS011;64907;51.574;6.502;2022-11-20T05:30:21;34.17;;;19.33;;
76157;SDS011;64907;51.574;6.502;2022-11-20T05:32:46;30.02;;;18.90;;
76157;SDS011;64907;51.574;6.502;2022-11-20T05:35:11;31.85;;;20.13;;
76157;SDS011;64907;51.574;6.502;2022-11-20T05:37:36;28.52;;;19.17;;
76157;SDS011;64907;51.574;6.502;2022-11-20T05:40:02;28.08;;;18.10;;
76157;SDS011;64907;51.574;6.502;2022-11-20T05:42:29;30.50;;;19.58;;
76157;SDS011;64907;51.574;6.502;2022-11-20T05:44:55;31.33;;;19.35;;
76157;SDS011;64907;51.574;6.502;2022-11-20T05:47:20;34.28;;;20.15;;
76157;SDS011;64907;51.574;6.502;2022-11-20T05:49:45;29.00;;;19.05;;
76157;SDS011;64907;51.574;6.502;2022-11-20T05:52:11;31.00;;;19.90;;
76157;SDS011;64907;51.574;6.502;2022-11-20T05:54:36;26.85;;;17.65;;
76157;SDS011;64907;51.574;6.502;2022-11-20T05:57:01;30.73;;;19.42;;
76157;SDS011;64907;51.574;6.502;2022-11-20T05:59:26;29.98;;;18.52;;
76157;SDS011;64907;51.574;6.502;2022-11-20T06:01:52;27.30;;;17.42;;
76157;SDS011;64907;51.574;6.502;2022-11-20T06:04:17;30.70;;;18.63;;
76157;SDS011;64907;51.574;6.502;2022-11-20T06:09:12;34.03;;;20.25;;
76157;SDS011;64907;51.574;6.502;2022-11-20T06:11:37;33.72;;;20.25;;
76157;SDS011;64907;51.574;6.502;2022-11-20T06:14:03;28.90;;;19.40;;
76157;SDS011;64907;51.574;6.502;2022-11-20T06:16:28;35.70;;;20.98;;
76157;SDS011;64907;51.574;6.502;2022-11-20T06:21:47;33.30;;;20.80;;
76157;SDS011;64907;51.574;6.502;2022-11-20T06:24:13;33.03;;;21.20;;
76157;SDS011;64907;51.574;6.502;2022-11-20T06:26:38;33.25;;;19.73;;
76157;SDS011;64907;51.574;6.502;2022-11-20T06:29:03;33.95;;;21.40;;
76157;SDS011;64907;51.574;6.502;2022-11-20T06:34:02;29.30;;;18.95;;
76157;SDS011;64907;51.574;6.502;2022-11-20T06:36:27;34.95;;;21.67;;
76157;SDS011;64907;51.574;6.502;2022-11-20T06:38:52;34.13;;;21.02;;
76157;SDS011;64907;51.574;6.502;2022-11-20T06:41:21;31.37;;;20.10;;
76157;SDS011;64907;51.574;6.502;2022-11-20T06:43:47;37.17;;;21.50;;
76157;SDS011;64907;51.574;6.502;2022-11-20T06:46:12;32.85;;;21.52;;
76157;SDS011;64907;51.574;6.502;2022-11-20T06:48:38;37.67;;;22.05;;
76157;SDS011;64907;51.574;6.502;2022-11-20T06:51:03;28.85;;;19.55;;
76157;SDS011;64907;51.574;6.502;2022-11-20T06:53:29;30.10;;;19.52;;
76157;SDS011;64907;51.574;6.502;2022-11-20T06:55:55;33.85;;;21.30;;
76157;SDS011;64907;51.574;6.502;2022-11-20T06:58:21;35.95;;;20.98;;
76157;SDS011;64907;51.574;6.502;2022-11-20T07:00:46;34.08;;;20.88;;
76157;SDS011;64907;51.574;6.502;2022-11-20T07:03:11;31.65;;;19.95;;
76157;SDS011;64907;51.574;6.502;2022-11-20T07:05:36;34.30;;;25.50;;
76157;SDS011;64907;51.574;6.502;2022-11-20T07:08:03;36.50;;;21.70;;
76157;SDS011;64907;51.574;6.502;2022-11-20T07:10:28;34.63;;;21.98;;
76157;SDS011;64907;51.574;6.502;2022-11-20T07:12:54;30.92;;;19.80;;
76157;SDS011;64907;51.574;6.502;2022-11-20T07:15:20;35.75;;;21.63;;
76157;SDS011;64907;51.574;6.502;2022-11-20T07:17:45;30.70;;;19.27;;
76157;SDS011;64907;51.574;6.502;2022-11-20T07:20:11;32.85;;;20.65;;
76157;SDS011;64907;51.574;6.502;2022-11-20T07:22:36;29.90;;;19.52;;
76157;SDS011;64907;51.574;6.502;2022-11-20T07:25:01;31.73;;;21.42;;
76157;SDS011;64907;51.574;6.502;2022-11-20T07:27:26;29.45;;;18.83;;
76157;SDS011;64907;51.574;6.502;2022-11-20T07:29:52;33.38;;;20.70;;
76157;SDS011;64907;51.574;6.502;2022-11-20T07:32:17;38.75;;;23.10;;
76157;SDS011;64907;51.574;6.502;2022-11-20T07:34:42;36.38;;;21.17;;
76157;SDS011;64907;51.574;6.502;2022-11-20T07:37:07;38.55;;;22.45;;
76157;SDS011;64907;51.574;6.502;2022-11-20T07:39:35;40.17;;;22.27;;
76157;SDS011;64907;51.574;6.502;2022-11-20T07:42:00;34.05;;;21.20;;
76157;SDS011;64907;51.574;6.502;2022-11-20T07:44:25;38.88;;;23.58;;
76157;SDS011;64907;51.574;6.502;2022-11-20T07:46:50;33.60;;;21.40;;
76157;SDS011;64907;51.574;6.502;2022-11-20T07:49:16;40.70;;;21.50;;
76157;SDS011;64907;51.574;6.502;2022-11-20T07:51:41;37.00;;;23.57;;
76157;SDS011;64907;51.574;6.502;2022-11-20T07:54:07;38.97;;;23.95;;
76157;SDS011;64907;51.574;6.502;2022-11-20T07:56:32;37.20;;;23.05;;
76157;SDS011;64907;51.574;6.502;2022-11-20T07:58:57;35.13;;;23.40;;
76157;SDS011;64907;51.574;6.502;2022-11-20T08:01:23;41.10;;;25.92;;
76157;SDS011;64907;51.574;6.502;2022-11-20T08:03:49;39.08;;;24.13;;
76157;SDS011;64907;51.574;6.502;2022-11-20T08:06:14;42.03;;;26.38;;
76157;SDS011;64907;51.574;6.502;2022-11-20T08:08:39;38.75;;;24.60;;
76157;SDS011;64907;51.574;6.502;2022-11-20T08:11:05;47.17;;;28.35;;
76157;SDS011;64907;51.574;6.502;2022-11-20T08:13:49;47.03;;;28.35;;
76157;SDS011;64907;51.574;6.502;2022-11-20T08:16:33;43.75;;;27.75;;
76157;SDS011;64907;51.574;6.502;2022-11-20T08:19:00;45.72;;;26.70;;
76157;SDS011;64907;51.574;6.502;2022-11-20T08:21:25;44.92;;;27.88;;
76157;SDS011;64907;51.574;6.502;2022-11-20T08:23:51;55.25;;;30.27;;
76157;SDS011;64907;51.574;6.502;2022-11-20T08:26:16;51.40;;;31.17;;
76157;SDS011;64907;51.574;6.502;2022-11-20T08:28:41;48.88;;;28.40;;
76157;SDS011;64907;51.574;6.502;2022-11-20T08:31:06;50.90;;;30.63;;
76157;SDS011;64907;51.574;6.502;2022-11-20T08:33:31;52.75;;;30.75;;
76157;SDS011;64907;51.574;6.502;2022-11-20T08:38:26;48.10;;;27.45;;
76157;SDS011;64907;51.574;6.502;2022-11-20T08:40:52;45.53;;;28.77;;
76157;SDS011;64907;51.574;6.502;2022-11-20T08:43:37;47.88;;;28.90;;
76157;SDS011;64907;51.574;6.502;2022-11-20T08:46:09;37.70;;;25.30;;
76157;SDS011;64907;51.574;6.502;2022-11-20T08:48:36;43.97;;;28.60;;
76157;SDS011;64907;51.574;6.502;2022-11-20T08:51:05;45.75;;;26.55;;
76157;SDS011;64907;51.574;6.502;2022-11-20T08:53:30;41.22;;;25.98;;
76157;SDS011;64907;51.574;6.502;2022-11-20T08:55:56;36.88;;;24.73;;
76157;SDS011;64907;51.574;6.502;2022-11-20T08:58:21;43.05;;;26.50;;
76157;SDS011;64907;51.574;6.502;2022-11-20T09:00:47;40.92;;;27.20;;
76157;SDS011;64907;51.574;6.502;2022-11-20T09:05:42;45.50;;;29.23;;
76157;SDS011;64907;51.574;6.502;2022-11-20T09:08:07;43.63;;;28.17;;
76157;SDS011;64907;51.574;6.502;2022-11-20T09:10:34;44.92;;;28.02;;
76157;SDS011;64907;51.574;6.502;2022-11-20T09:12:59;44.13;;;29.02;;
76157;SDS011;64907;51.574;6.502;2022-11-20T09:15:25;44.65;;;28.20;;
76157;SDS011;64907;51.574;6.502;2022-11-20T09:17:51;43.72;;;27.65;;
76157;SDS011;64907;51.574;6.502;2022-11-20T09:22:45;41.70;;;28.08;;
76157;SDS011;64907;51.574;6.502;2022-11-20T09:25:11;41.65;;;27.80;;
76157;SDS011;64907;51.574;6.502;2022-11-20T09:27:36;45.55;;;27.17;;
76157;SDS011;64907;51.574;6.502;2022-11-20T09:30:02;44.20;;;28.13;;
76157;SDS011;64907;51.574;6.502;2022-11-20T09:32:28;43.47;;;27.05;;
76157;SDS011;64907;51.574;6.502;2022-11-20T09:34:53;44.05;;;28.30;;
76157;SDS011;64907;51.574;6.502;2022-11-20T09:37:19;42.47;;;28.65;;
76157;SDS011;64907;51.574;6.502;2022-11-20T09:39:44;38.80;;;26.73;;
76157;SDS011;64907;51.574;6.502;2022-11-20T09:52:32;35.40;;;23.83;;
76157;SDS011;64907;51.574;6.502;2022-11-20T09:55:00;35.50;;;24.25;;
76157;SDS011;64907;51.574;6.502;2022-11-20T09:57:30;35.13;;;24.40;;
76157;SDS011;64907;51.574;6.502;2022-11-20T09:59:59;34.78;;;22.98;;
76157;SDS011;64907;51.574;6.502;2022-11-20T10:02:27;35.97;;;24.08;;
76157;SDS011;64907;51.574;6.502;2022-11-20T10:07:32;37.67;;;22.73;;
76157;SDS011;64907;51.574;6.502;2022-11-20T10:10:01;33.72;;;23.10;;
76157;SDS011;64907;51.574;6.502;2022-11-20T10:22:51;28.93;;;19.57;;
76157;SDS011;64907;51.574;6.502;2022-11-20T10:28:00;29.10;;;19.95;;
76157;SDS011;64907;51.574;6.502;2022-11-20T10:30:29;26.83;;;18.85;;
76157;SDS011;64907;51.574;6.502;2022-11-20T10:33:03;24.15;;;18.17;;
76157;SDS011;64907;51.574;6.502;2022-11-20T10:35:37;24.67;;;18.00;;
76157;SDS011;64907;51.574;6.502;2022-11-20T10:38:10;22.77;;;16.98;;
76157;SDS011;64907;51.574;6.502;2022-11-20T10:43:41;22.70;;;17.40;;
76157;SDS011;64907;51.574;6.502;2022-11-20T10:48:44;25.60;;;22.17;;
76157;SDS011;64907;51.574;6.502;2022-11-20T10:51:12;23.35;;;18.63;;
76157;SDS011;64907;51.574;6.502;2022-11-20T10:53:42;23.75;;;18.05;;
76157;SDS011;64907;51.574;6.502;2022-11-20T10:56:17;28.85;;;19.63;;
76157;SDS011;64907;51.574;6.502;2022-11-20T11:01:38;25.63;;;18.25;;
76157;SDS011;64907;51.574;6.502;2022-11-20T11:04:06;23.88;;;18.05;;
76157;SDS011;64907;51.574;6.502;2022-11-20T11:06:37;26.77;;;19.17;;
76157;SDS011;64907;51.574;6.502;2022-11-20T11:09:16;27.45;;;19.42;;
76157;SDS011;64907;51.574;6.502;2022-11-20T11:11:51;26.13;;;19.48;;
76157;SDS011;64907;51.574;6.502;2022-11-20T11:14:16;30.17;;;20.98;;
76157;SDS011;64907;51.574;6.502;2022-11-20T11:16:57;29.73;;;19.47;;
76157;SDS011;64907;51.574;6.502;2022-11-20T11:19:24;28.70;;;19.85;;
76157;SDS011;64907;51.574;6.502;2022-11-20T11:21:56;29.90;;;21.38;;
76157;SDS011;64907;51.574;6.502;2022-11-20T11:24:23;31.92;;;20.95;;
76157;SDS011;64907;51.574;6.502;2022-11-20T11:26:58;32.92;;;22.23;;
76157;SDS011;64907;51.574;6.502;2022-11-20T11:29:24;29.13;;;20.98;;
76157;SDS011;64907;51.574;6.502;2022-11-20T11:32:02;29.05;;;21.13;;
76157;SDS011;64907;51.574;6.502;2022-11-20T11:34:27;28.80;;;20.13;;
76157;SDS011;64907;51.574;6.502;2022-11-20T11:36:57;31.95;;;22.02;;
76157;SDS011;64907;51.574;6.502;2022-11-20T11:41:51;32.35;;;21.23;;
76157;SDS011;64907;51.574;6.502;2022-11-20T11:44:18;28.70;;;20.88;;
76157;SDS011;64907;51.574;6.502;2022-11-20T11:47:02;29.05;;;21.73;;
76157;SDS011;64907;51.574;6.502;2022-11-20T11:49:29;30.92;;;22.10;;
76157;SDS011;64907;51.574;6.502;2022-11-20T11:52:03;34.67;;;23.13;;
76157;SDS011;64907;51.574;6.502;2022-11-20T11:57:59;30.27;;;21.50;;
76157;SDS011;64907;51.574;6.502;2022-11-20T12:00:14;36.45;;;24.17;;
76157;SDS011;64907;51.574;6.502;2022-11-20T12:07:43;35.55;;;25.23;;
76157;SDS011;64907;51.574;6.502;2022-11-20T12:12:45;35.10;;;23.77;;
76157;SDS011;64907;51.574;6.502;2022-11-20T12:15:13;34.08;;;23.55;;
76157;SDS011;64907;51.574;6.502;2022-11-20T12:17:40;34.90;;;23.08;;
76157;SDS011;64907;51.574;6.502;2022-11-20T12:20:11;34.03;;;21.90;;
76157;SDS011;64907;51.574;6.502;2022-11-20T12:22:46;34.92;;;23.25;;
76157;SDS011;64907;51.574;6.502;2022-11-20T12:43:24;34.28;;;22.88;;
76157;SDS011;64907;51.574;6.502;2022-11-20T13:01:35;36.33;;;22.73;;
76157;SDS011;64907;51.574;6.502;2022-11-20T13:06:51;35.83;;;22.35;;
76157;SDS011;64907;51.574;6.502;2022-11-20T13:09:18;35.80;;;20.80;;
76157;SDS011;64907;51.574;6.502;2022-11-20T13:11:48;39.88;;;22.48;;
76157;SDS011;64907;51.574;6.502;2022-11-20T13:17:14;32.25;;;21.13;;
76157;SDS011;64907;51.574;6.502;2022-11-20T13:19:41;33.92;;;21.58;;
76157;SDS011;64907;51.574;6.502;2022-11-20T13:22:11;37.08;;;22.52;;
76157;SDS011;64907;51.574;6.502;2022-11-20T13:24:36;37.45;;;22.42;;
76157;SDS011;64907;51.574;6.502;2022-11-20T13:29:29;40.10;;;24.10;;
76157;SDS011;64907;51.574;6.502;2022-11-20T13:34:39;43.47;;;23.70;;
76157;SDS011;64907;51.574;6.502;2022-11-20T13:37:24;43.50;;;25.20;;
76157;SDS011;64907;51.574;6.502;2022-11-20T13:39:50;43.25;;;24.42;;
76157;SDS011;64907;51.574;6.502;2022-11-20T13:44:43;42.47;;;25.05;;
76157;SDS011;64907;51.574;6.502;2022-11-20T13:47:25;45.50;;;25.40;;
76157;SDS011;64907;51.574;6.502;2022-11-20T13:49:57;50.78;;;27.35;;
76157;SDS011;64907;51.574;6.502;2022-11-20T14:00:21;45.05;;;23.67;;
76157;SDS011;64907;51.574;6.502;2022-11-20T14:05:30;38.78;;;24.20;;
76157;SDS011;64907;51.574;6.502;2022-11-20T14:08:03;43.58;;;26.08;;
76157;SDS011;64907;51.574;6.502;2022-11-20T14:10:30;43.45;;;26.17;;
76157;SDS011;64907;51.574;6.502;2022-11-20T14:12:56;44.50;;;25.67;;
76157;SDS011;64907;51.574;6.502;2022-11-20T14:15:39;47.53;;;26.40;;
76157;SDS011;64907;51.574;6.502;2022-11-20T14:18:13;41.88;;;25.20;;
76157;SDS011;64907;51.574;6.502;2022-11-20T14:20:38;45.20;;;25.63;;
76157;SDS011;64907;51.574;6.502;2022-11-20T14:26:03;49.03;;;27.67;;
76157;SDS011;64907;51.574;6.502;2022-11-20T14:31:08;46.05;;;25.30;;
76157;SDS011;64907;51.574;6.502;2022-11-20T14:33:40;46.20;;;25.88;;
76157;SDS011;64907;51.574;6.502;2022-11-20T14:36:05;43.27;;;26.03;;
76157;SDS011;64907;51.574;6.502;2022-11-20T14:38:32;49.70;;;24.50;;
76157;SDS011;64907;51.574;6.502;2022-11-20T14:41:17;45.05;;;25.80;;
76157;SDS011;64907;51.574;6.502;2022-11-20T14:46:12;50.45;;;27.35;;
76157;SDS011;64907;51.574;6.502;2022-11-20T14:48:41;48.15;;;27.13;;
76157;SDS011;64907;51.574;6.502;2022-11-20T14:51:11;50.65;;;27.23;;
76157;SDS011;64907;51.574;6.502;2022-11-20T14:53:36;51.47;;;26.85;;
76157;SDS011;64907;51.574;6.502;2022-11-20T14:56:02;43.85;;;26.58;;
76157;SDS011;64907;51.574;6.502;2022-11-20T14:58:28;51.67;;;26.45;;
76157;SDS011;64907;51.574;6.502;2022-11-20T15:03:31;46.33;;;25.23;;
76157;SDS011;64907;51.574;6.502;2022-11-20T15:06:05;45.45;;;25.08;;
76157;SDS011;64907;51.574;6.502;2022-11-20T15:08:30;47.20;;;25.83;;
76157;SDS011;64907;51.574;6.502;2022-11-20T15:10:56;47.80;;;26.53;;
76157;SDS011;64907;51.574;6.502;2022-11-20T15:19:12;43.67;;;25.17;;
76157;SDS011;64907;51.574;6.502;2022-11-20T15:21:43;55.15;;;27.27;;
76157;SDS011;64907;51.574;6.502;2022-11-20T15:24:08;46.42;;;26.33;;
76157;SDS011;64907;51.574;6.502;2022-11-20T15:26:34;52.28;;;27.58;;
76157;SDS011;64907;51.574;6.502;2022-11-20T15:29:01;47.22;;;26.13;;
76157;SDS011;64907;51.574;6.502;2022-11-20T15:33:56;45.28;;;25.67;;
76157;SDS011;64907;51.574;6.502;2022-11-20T15:36:25;57.33;;;27.73;;
76157;SDS011;64907;51.574;6.502;2022-11-20T15:38:51;47.92;;;25.77;;
76157;SDS011;64907;51.574;6.502;2022-11-20T15:41:16;48.40;;;25.40;;
76157;SDS011;64907;51.574;6.502;2022-11-20T15:43:41;49.13;;;26.90;;
76157;SDS011;64907;51.574;6.502;2022-11-20T15:46:09;52.05;;;27.58;;
76157;SDS011;64907;51.574;6.502;2022-11-20T15:53:32;51.75;;;27.75;;
76157;SDS011;64907;51.574;6.502;2022-11-20T15:56:00;47.38;;;26.55;;
76157;SDS011;64907;51.574;6.502;2022-11-20T15:58:26;49.65;;;25.80;;
76157;SDS011;64907;51.574;6.502;2022-11-20T16:00:52;57.55;;;28.95;;
76157;SDS011;64907;51.574;6.502;2022-11-20T16:03:24;53.28;;;29.08;;
76157;SDS011;64907;51.574;6.502;2022-11-20T16:05:51;45.58;;;26.73;;
76157;SDS011;64907;51.574;6.502;2022-11-20T16:08:16;50.72;;;27.23;;
76157;SDS011;64907;51.574;6.502;2022-11-20T16:13:13;50.17;;;28.30;;
76157;SDS011;64907;51.574;6.502;2022-11-20T16:15:57;52.33;;;27.13;;
76157;SDS011;64907;51.574;6.502;2022-11-20T16:18:23;57.05;;;28.17;;
76157;SDS011;64907;51.574;6.502;2022-11-20T16:20:51;53.63;;;27.45;;
76157;SDS011;64907;51.574;6.502;2022-11-20T16:23:16;61.80;;;29.42;;
76157;SDS011;64907;51.574;6.502;2022-11-20T16:25:43;58.30;;;30.42;;
76157;SDS011;64907;51.574;6.502;2022-11-20T16:28:08;58.70;;;30.35;;
76157;SDS011;64907;51.574;6.502;2022-11-20T16:30:48;58.25;;;29.60;;
76157;SDS011;64907;51.574;6.502;2022-11-20T16:33:15;60.15;;;30.02;;
76157;SDS011;64907;51.574;6.502;2022-11-20T16:35:41;56.40;;;28.73;;
76157;SDS011;64907;51.574;6.502;2022-11-20T16:38:08;63.40;;;36.77;;
76157;SDS011;64907;51.574;6.502;2022-11-20T16:43:10;62.75;;;32.45;;
76157;SDS011;64907;51.574;6.502;2022-11-20T16:45:39;66.25;;;32.55;;
76157;SDS011;64907;51.574;6.502;2022-11-20T16:48:05;62.47;;;31.48;;
76157;SDS011;64907;51.574;6.502;2022-11-20T16:50:30;62.23;;;32.87;;
76157;SDS011;64907;51.574;6.502;2022-11-20T16:52:55;73.63;;;33.50;;
76157;SDS011;64907;51.574;6.502;2022-11-20T16:55:20;72.82;;;35.25;;
76157;SDS011;64907;51.574;6.502;2022-11-20T16:57:47;70.88;;;34.00;;
76157;SDS011;64907;51.574;6.502;2022-11-20T17:00:13;72.03;;;33.50;;